createdAt,value
2019-01-13T00:01:58.247Z,18.60
2019-01-13T00:04:27.612Z,20.70
2019-01-13T00:06:56.966Z,19.13
2019-01-13T00:09:26.371Z,25.37
2019-01-13T00:11:55.775Z,19.60
2019-01-13T00:14:26.806Z,22.23
2019-01-13T00:16:56.396Z,23.50
2019-01-13T00:19:25.774Z,20.67
2019-01-13T00:21:54.985Z,26.47
2019-01-13T00:24:24.419Z,21.10
2019-01-13T00:26:53.817Z,23.70
2019-01-13T00:29:23.259Z,19.80
2019-01-13T00:31:52.682Z,21.73
2019-01-13T00:34:22.070Z,27.33
2019-01-13T00:36:51.450Z,23.73
2019-01-13T00:39:20.880Z,21.50
2019-01-13T00:41:50.274Z,29.20
2019-01-13T00:44:19.659Z,24.20
2019-01-13T00:46:48.995Z,23.30
2019-01-13T00:49:18.309Z,26.23
2019-01-13T00:51:47.703Z,25.50
2019-01-13T00:54:17.025Z,28.47
2019-01-13T00:56:46.363Z,24.63
2019-01-13T00:59:15.667Z,33.97
2019-01-13T01:01:45.072Z,25.07
2019-01-13T01:04:14.547Z,24.63
2019-01-13T01:06:43.898Z,29.77
2019-01-13T01:09:13.263Z,27.07
2019-01-13T01:11:42.733Z,27.90
2019-01-13T01:14:12.148Z,28.70
2019-01-13T01:16:41.500Z,25.83
2019-01-13T01:19:10.950Z,26.73
2019-01-13T01:21:40.268Z,23.10
2019-01-13T01:24:09.730Z,23.37
2019-01-13T01:26:39.232Z,25.47
2019-01-13T01:29:08.611Z,24.07
2019-01-13T01:31:37.924Z,22.07
2019-01-13T01:34:07.391Z,21.97
2019-01-13T01:36:36.783Z,20.80
2019-01-13T01:39:08.157Z,22.63
2019-01-13T01:41:37.451Z,25.53
2019-01-13T01:44:06.800Z,21.20
2019-01-13T01:46:36.225Z,24.50
2019-01-13T01:49:05.646Z,21.73
2019-01-13T01:51:34.948Z,24.63
2019-01-13T01:54:04.348Z,21.57
2019-01-13T01:56:33.746Z,20.07
2019-01-13T01:59:03.141Z,19.53
2019-01-13T02:01:32.518Z,19.10
2019-01-13T02:04:01.935Z,19.20
2019-01-13T02:06:31.341Z,20.03
2019-01-13T02:09:00.708Z,18.43
2019-01-13T02:11:30.105Z,16.77
2019-01-13T02:13:59.532Z,19.37
2019-01-13T02:16:28.825Z,18.10
2019-01-13T02:18:58.196Z,18.20
2019-01-13T02:21:27.492Z,18.87
2019-01-13T02:23:56.865Z,17.93
2019-01-13T02:26:26.251Z,19.30
2019-01-13T02:28:55.617Z,17.27
2019-01-13T02:31:24.969Z,22.03
2019-01-13T02:33:54.487Z,19.27
2019-01-13T02:36:23.879Z,20.03
2019-01-13T02:38:53.215Z,18.13
2019-01-13T02:41:22.605Z,19.00
2019-01-13T02:43:52.030Z,20.77
2019-01-13T02:46:21.436Z,20.57
2019-01-13T02:48:51.124Z,21.77
2019-01-13T02:51:20.371Z,19.73
2019-01-13T02:53:49.770Z,22.47
2019-01-13T02:56:19.192Z,22.43
2019-01-13T02:58:48.537Z,22.37
2019-01-13T03:01:17.945Z,23.50
2019-01-13T03:03:47.332Z,21.37
2019-01-13T03:06:16.711Z,22.07
2019-01-13T03:08:46.069Z,23.53
2019-01-13T03:11:15.417Z,21.13
2019-01-13T03:13:44.721Z,26.17
2019-01-13T03:16:14.065Z,23.40
2019-01-13T03:18:43.361Z,21.93
2019-01-13T03:21:12.701Z,21.70
2019-01-13T03:23:42.113Z,24.87
2019-01-13T03:26:11.432Z,30.40
2019-01-13T03:28:40.754Z,29.77
2019-01-13T03:31:11.696Z,30.40
2019-01-13T03:33:41.098Z,31.77
2019-01-13T03:36:10.451Z,35.23
2019-01-13T03:38:39.853Z,33.70
2019-01-13T03:41:09.192Z,39.23
2019-01-13T03:43:38.548Z,33.50
2019-01-13T03:46:07.911Z,34.97
2019-01-13T03:48:37.311Z,35.27
2019-01-13T03:51:06.604Z,35.27
2019-01-13T03:53:35.941Z,34.73
2019-01-13T03:56:05.286Z,35.50
2019-01-13T03:58:34.743Z,30.83
2019-01-13T04:01:04.140Z,33.73
2019-01-13T04:03:33.439Z,30.70
2019-01-13T04:06:02.810Z,34.63
2019-01-13T04:08:32.213Z,31.47
2019-01-13T04:11:01.603Z,30.43
2019-01-13T04:13:30.953Z,34.80
2019-01-13T04:16:03.868Z,33.53
2019-01-13T04:18:33.295Z,31.93
2019-01-13T04:21:02.694Z,33.17
2019-01-13T04:23:32.007Z,32.53
2019-01-13T04:26:01.394Z,35.87
2019-01-13T04:28:30.780Z,33.13
2019-01-13T04:31:00.156Z,31.40
2019-01-13T04:33:29.607Z,31.50
2019-01-13T04:35:58.971Z,35.13
2019-01-13T04:38:28.381Z,33.90
2019-01-13T04:40:57.751Z,35.60
2019-01-13T04:43:27.142Z,34.57
2019-01-13T04:45:56.545Z,35.70
2019-01-13T04:48:25.916Z,36.10
2019-01-13T04:50:55.279Z,37.33
2019-01-13T04:53:24.586Z,38.90
2019-01-13T04:55:53.965Z,38.50
2019-01-13T04:58:23.336Z,35.07
2019-01-13T05:00:52.736Z,40.27
2019-01-13T05:03:22.159Z,37.23
2019-01-13T05:05:51.596Z,36.93
2019-01-13T05:08:21.007Z,37.17
2019-01-13T05:10:50.346Z,39.33
2019-01-13T05:13:19.762Z,36.47
2019-01-13T05:15:49.157Z,38.30
2019-01-13T05:18:18.548Z,38.57
2019-01-13T05:20:47.917Z,35.73
2019-01-13T05:23:17.233Z,33.93
2019-01-13T05:25:46.552Z,34.50
2019-01-13T05:28:15.926Z,35.50
2019-01-13T05:30:45.328Z,32.70
2019-01-13T05:33:14.731Z,32.60
2019-01-13T05:35:44.107Z,31.67
2019-01-13T05:38:13.407Z,28.77
2019-01-13T05:40:42.769Z,29.30
2019-01-13T05:43:12.204Z,26.70
2019-01-13T05:45:41.540Z,25.50
2019-01-13T05:48:10.853Z,28.67
2019-01-13T05:50:40.218Z,23.77
2019-01-13T05:53:09.504Z,23.53
2019-01-13T05:55:38.816Z,21.27
2019-01-13T05:58:08.070Z,19.67
2019-01-13T06:00:42.635Z,19.10
2019-01-13T06:03:12.000Z,19.47
2019-01-13T06:05:41.433Z,16.60
2019-01-13T06:08:10.835Z,18.67
2019-01-13T06:10:40.179Z,18.33
2019-01-13T06:13:09.504Z,16.63
2019-01-13T06:15:38.857Z,16.50
2019-01-13T06:18:08.211Z,17.87
2019-01-13T06:20:37.584Z,19.50
2019-01-13T06:23:06.875Z,16.37
2019-01-13T06:25:36.218Z,21.43
2019-01-13T06:28:05.589Z,20.53
2019-01-13T06:30:34.973Z,23.97
2019-01-13T06:33:04.403Z,22.60
2019-01-13T06:35:34.915Z,20.83
2019-01-13T06:38:04.346Z,22.00
2019-01-13T06:40:33.778Z,20.97
2019-01-13T06:43:03.304Z,23.97
2019-01-13T06:45:32.718Z,22.83
2019-01-13T06:48:02.250Z,25.43
2019-01-13T06:50:31.601Z,21.20
2019-01-13T06:53:00.895Z,24.03
2019-01-13T06:55:30.244Z,25.33
2019-01-13T06:57:59.683Z,24.27
2019-01-13T07:00:29.403Z,22.87
2019-01-13T07:02:59.387Z,22.37
2019-01-13T07:05:28.660Z,26.23
2019-01-13T07:07:58.063Z,24.77
2019-01-13T07:10:27.398Z,23.30
2019-01-13T07:12:56.880Z,25.37
2019-01-13T07:15:26.148Z,23.27
2019-01-13T07:17:55.470Z,22.20
2019-01-13T07:20:24.919Z,29.37
2019-01-13T07:22:54.306Z,25.80
2019-01-13T07:25:23.767Z,26.67
2019-01-13T07:27:53.167Z,21.10
2019-01-13T07:30:26.567Z,28.10
2019-01-13T07:32:56.017Z,29.87
2019-01-13T07:35:25.551Z,21.43
2019-01-13T07:37:54.972Z,23.70
2019-01-13T07:40:24.838Z,24.13
2019-01-13T07:42:54.875Z,27.17
2019-01-13T07:45:28.947Z,27.53
2019-01-13T07:47:58.365Z,24.57
2019-01-13T07:50:27.789Z,26.63
2019-01-13T07:52:57.217Z,29.53
2019-01-13T07:55:26.656Z,32.77
2019-01-13T07:57:56.050Z,26.70
2019-01-13T08:00:33.423Z,31.03
2019-01-13T08:03:04.430Z,33.13
2019-01-13T08:05:33.870Z,33.13
2019-01-13T08:08:03.224Z,34.43
2019-01-13T08:10:32.639Z,29.03
2019-01-13T08:13:02.014Z,28.20
2019-01-13T08:15:31.446Z,31.57
2019-01-13T08:18:00.822Z,33.73
2019-01-13T08:20:31.971Z,30.73
2019-01-13T08:23:01.711Z,28.83
2019-01-13T08:25:31.292Z,28.47
2019-01-13T08:28:00.708Z,31.87
2019-01-13T08:30:30.095Z,30.60
2019-01-13T08:33:00.103Z,28.20
2019-01-13T08:35:29.505Z,29.70
2019-01-13T08:37:58.925Z,27.63
2019-01-13T08:40:28.303Z,27.43
2019-01-13T08:42:57.800Z,34.83
2019-01-13T08:45:27.140Z,30.03
2019-01-13T08:47:56.550Z,32.13
2019-01-13T08:50:26.314Z,27.57
2019-01-13T08:52:55.836Z,28.57
2019-01-13T08:55:27.286Z,21.40
2019-01-13T08:57:56.683Z,31.00
2019-01-13T09:00:28.223Z,26.80
2019-01-13T09:02:57.491Z,25.07
2019-01-13T09:05:26.976Z,23.67
2019-01-13T09:07:56.337Z,28.30
2019-01-13T09:10:25.874Z,41.90
2019-01-13T09:12:56.857Z,32.63
2019-01-13T09:15:27.197Z,26.90
2019-01-13T09:17:56.749Z,28.07
2019-01-13T09:20:28.141Z,43.93
2019-01-13T09:22:59.483Z,24.17
2019-01-13T09:25:29.551Z,22.07
2019-01-13T09:27:59.398Z,28.27
2019-01-13T09:30:29.993Z,21.07
2019-01-13T09:32:59.469Z,22.70
2019-01-13T09:35:29.470Z,18.27
2019-01-13T09:37:58.918Z,26.20
2019-01-13T09:40:30.593Z,20.00
2019-01-13T09:43:01.780Z,19.43
2019-01-13T09:45:31.380Z,17.27
2019-01-13T09:48:01.058Z,23.73
2019-01-13T09:50:30.421Z,19.23
2019-01-13T09:52:59.841Z,19.33
2019-01-13T09:55:29.225Z,23.60
2019-01-13T09:57:58.648Z,22.27
2019-01-13T10:00:35.939Z,23.60
2019-01-13T10:03:06.469Z,20.03
2019-01-13T10:05:36.159Z,24.87
2019-01-13T10:08:05.873Z,19.97
2019-01-13T10:10:35.635Z,24.93
2019-01-13T10:13:06.508Z,19.90
2019-01-13T10:15:36.423Z,20.83
2019-01-13T10:18:05.976Z,18.43
2019-01-13T10:20:36.344Z,17.60
2019-01-13T10:23:07.204Z,16.53
2019-01-13T10:25:36.568Z,19.83
2019-01-13T10:28:06.269Z,22.40
2019-01-13T10:30:36.460Z,18.40
2019-01-13T10:33:05.820Z,20.13
2019-01-13T10:35:35.323Z,21.40
2019-01-13T10:38:04.625Z,16.03
2019-01-13T10:40:34.013Z,17.37
2019-01-13T10:43:03.595Z,16.57
2019-01-13T10:45:32.998Z,14.97
2019-01-13T10:48:02.496Z,16.30
2019-01-13T10:50:33.062Z,15.63
2019-01-13T10:53:05.303Z,15.93
2019-01-13T10:55:34.662Z,14.53
2019-01-13T10:58:04.623Z,13.43
2019-01-13T11:00:35.906Z,17.67
2019-01-13T11:03:05.958Z,14.63
2019-01-13T11:05:35.562Z,17.93
2019-01-13T11:08:11.461Z,14.43
2019-01-13T11:10:36.609Z,14.50
2019-01-13T11:13:06.020Z,17.20
2019-01-13T11:15:35.399Z,14.93
2019-01-13T11:18:05.284Z,17.47
2019-01-13T11:20:39.421Z,16.73
2019-01-13T11:23:09.012Z,19.87
2019-01-13T11:25:38.408Z,18.17
2019-01-13T11:28:07.903Z,18.27
2019-01-13T11:30:37.222Z,15.43
2019-01-13T11:33:09.734Z,18.23
2019-01-13T11:35:37.647Z,15.93
2019-01-13T11:38:07.323Z,19.47
2019-01-13T11:40:36.595Z,19.13
2019-01-13T11:43:06.006Z,22.80
2019-01-13T11:45:35.395Z,21.17
2019-01-13T11:48:05.124Z,21.97
2019-01-13T11:50:34.508Z,22.43
2019-01-13T11:53:03.954Z,20.93
2019-01-13T11:55:33.426Z,19.70
2019-01-13T11:58:02.742Z,19.60
2019-01-13T12:00:37.766Z,18.97
2019-01-13T12:03:07.317Z,21.80
2019-01-13T12:05:36.595Z,21.17
2019-01-13T12:08:06.590Z,20.97
2019-01-13T12:10:36.185Z,18.90
2019-01-13T12:13:05.924Z,18.77
2019-01-13T12:15:35.195Z,20.07
2019-01-13T12:18:05.395Z,15.63
2019-01-13T12:20:34.643Z,18.13
2019-01-13T12:23:04.118Z,17.40
2019-01-13T12:25:33.535Z,18.87
2019-01-13T12:28:02.941Z,19.53
2019-01-13T12:30:33.100Z,22.57
2019-01-13T12:33:02.546Z,21.27
2019-01-13T12:35:31.927Z,19.87
2019-01-13T12:38:01.334Z,19.77
2019-01-13T12:40:32.118Z,22.07
2019-01-13T12:43:02.059Z,17.43
2019-01-13T12:45:31.499Z,23.83
2019-01-13T12:48:00.856Z,24.73
2019-01-13T12:50:31.301Z,23.47
2019-01-13T12:53:00.742Z,20.17
2019-01-13T12:55:30.175Z,23.13
2019-01-13T12:57:59.587Z,26.80
2019-01-13T13:00:28.957Z,17.93
2019-01-13T13:02:58.477Z,30.80
2019-01-13T13:05:27.909Z,26.17
2019-01-13T13:07:57.344Z,26.17
2019-01-13T13:10:38.094Z,21.97
2019-01-13T13:13:07.873Z,24.17
2019-01-13T13:15:37.299Z,23.43
2019-01-13T13:18:06.843Z,20.73
2019-01-13T13:20:36.314Z,24.70
2019-01-13T13:23:07.452Z,19.10
2019-01-13T13:25:36.854Z,16.53
2019-01-13T13:28:06.935Z,19.63
2019-01-13T13:30:36.299Z,21.60
2019-01-13T13:33:06.566Z,19.73
2019-01-13T13:35:39.845Z,16.80
2019-01-13T13:38:07.621Z,17.17
2019-01-13T13:40:36.839Z,15.63
2019-01-13T13:43:06.400Z,22.63
2019-01-13T13:45:35.911Z,23.10
2019-01-13T13:48:05.569Z,18.07
2019-01-13T13:50:34.969Z,19.43
2019-01-13T13:53:04.793Z,23.73
2019-01-13T13:55:34.148Z,24.50
2019-01-13T13:58:04.065Z,20.23
2019-01-13T14:00:35.543Z,20.10
2019-01-13T14:03:05.889Z,18.57
2019-01-13T14:05:35.462Z,19.80
2019-01-13T14:08:08.518Z,22.10
2019-01-13T14:10:42.611Z,21.50
2019-01-13T14:13:12.028Z,17.63
2019-01-13T14:15:41.462Z,22.57
2019-01-13T14:18:10.814Z,20.63
2019-01-13T14:20:40.216Z,20.80
2019-01-13T14:23:09.648Z,18.43
2019-01-13T14:25:39.022Z,22.00
2019-01-13T14:28:08.363Z,14.57
2019-01-13T14:30:37.778Z,20.27
2019-01-13T14:33:07.173Z,21.63
2019-01-13T14:35:36.662Z,19.37
2019-01-13T14:38:06.039Z,19.40
2019-01-13T14:40:35.592Z,23.87
2019-01-13T14:43:05.258Z,22.20
2019-01-13T14:45:34.633Z,27.67
2019-01-13T14:48:04.447Z,18.97
2019-01-13T14:50:34.304Z,18.20
2019-01-13T14:53:05.554Z,18.30
2019-01-13T14:55:35.079Z,14.67
2019-01-13T14:58:05.161Z,15.27
2019-01-13T15:00:34.672Z,15.40
2019-01-13T15:03:05.022Z,15.27
2019-01-13T15:05:34.520Z,14.30
2019-01-13T15:08:04.955Z,14.37
2019-01-13T15:10:35.313Z,12.23
2019-01-13T15:13:05.010Z,12.63
2019-01-13T15:15:34.729Z,11.53
2019-01-13T15:18:04.644Z,14.47
2019-01-13T15:20:33.933Z,15.70
2019-01-13T15:23:03.920Z,10.97
2019-01-13T15:25:33.503Z,12.87
2019-01-13T15:28:02.970Z,10.20
2019-01-13T15:30:35.041Z,14.93
2019-01-13T15:33:05.377Z,12.73
2019-01-13T15:35:35.276Z,12.87
2019-01-13T15:38:06.114Z,11.73
2019-01-13T15:40:35.509Z,13.63
2019-01-13T15:43:05.028Z,15.43
2019-01-13T15:45:34.743Z,12.30
2019-01-13T15:48:04.793Z,12.07
2019-01-13T15:50:34.534Z,13.87
2019-01-13T15:53:04.158Z,15.27
2019-01-13T15:55:33.690Z,10.00
2019-01-13T15:58:03.184Z,15.73
2019-01-13T16:00:34.673Z,11.90
2019-01-13T16:03:04.561Z,17.20
2019-01-13T16:05:33.969Z,24.17
2019-01-13T16:08:04.899Z,25.23
2019-01-13T16:10:34.325Z,21.27
2019-01-13T16:13:03.795Z,21.00
2019-01-13T16:15:34.332Z,16.53
2019-01-13T16:18:04.461Z,10.60
2019-01-13T16:20:38.747Z,10.60
2019-01-13T16:23:09.293Z,13.47
2019-01-13T16:25:38.725Z,16.10
2019-01-13T16:28:08.143Z,14.83
2019-01-13T16:30:38.074Z,12.60
2019-01-13T16:33:07.409Z,11.80
2019-01-13T16:35:39.161Z,9.20
2019-01-13T16:38:08.550Z,8.83
2019-01-13T16:40:38.010Z,10.80
2019-01-13T16:43:07.462Z,11.10
2019-01-13T16:45:38.979Z,11.33
2019-01-13T16:48:09.260Z,6.93
2019-01-13T16:50:38.698Z,10.17
2019-01-13T16:53:08.476Z,10.30
2019-01-13T16:55:38.333Z,12.43
2019-01-13T16:58:07.697Z,10.57
2019-01-13T17:00:37.143Z,7.00
2019-01-13T17:03:06.757Z,18.57
2019-01-13T17:05:36.159Z,9.27
2019-01-13T17:08:05.627Z,10.57
2019-01-13T17:10:35.014Z,12.20
2019-01-13T17:13:04.294Z,12.33
2019-01-13T17:15:35.452Z,11.47
2019-01-13T17:18:05.332Z,11.07
2019-01-13T17:20:35.120Z,10.33
2019-01-13T17:23:05.727Z,12.47
2019-01-13T17:25:35.152Z,26.23
2019-01-13T17:28:04.573Z,9.93
2019-01-13T17:30:37.164Z,10.70
2019-01-13T17:33:06.785Z,10.60
2019-01-13T17:35:36.712Z,19.77
2019-01-13T17:38:09.745Z,10.20
2019-01-13T17:40:46.469Z,9.77
2019-01-13T17:43:15.840Z,10.63
2019-01-13T17:45:45.235Z,10.30
2019-01-13T17:48:14.694Z,9.87
2019-01-13T17:50:44.620Z,11.13
2019-01-13T17:53:14.405Z,12.23
2019-01-13T17:55:44.247Z,7.80
2019-01-13T17:58:13.672Z,14.00
2019-01-13T18:01:15.401Z,10.97
2019-01-13T18:03:46.374Z,5.80
2019-01-13T18:06:15.853Z,10.70
2019-01-13T18:08:45.350Z,11.23
2019-01-13T18:11:14.776Z,12.47
2019-01-13T18:13:47.007Z,10.40
2019-01-13T18:16:17.544Z,6.53
2019-01-13T18:18:47.041Z,4.27
2019-01-13T18:21:16.749Z,9.87
2019-01-13T18:23:46.169Z,8.50
2019-01-13T18:26:15.640Z,6.33
2019-01-13T18:28:48.058Z,12.73
2019-01-13T18:31:17.968Z,13.27
2019-01-13T18:33:47.805Z,14.23
2019-01-13T18:36:17.326Z,17.03
2019-01-13T18:38:46.788Z,12.93
2019-01-13T18:41:16.925Z,9.33
2019-01-13T18:43:46.418Z,15.57
2019-01-13T18:46:15.980Z,13.60
2019-01-13T18:48:45.542Z,14.07
2019-01-13T18:51:15.183Z,15.50
2019-01-13T18:53:44.596Z,12.90
2019-01-13T18:56:14.052Z,23.60
2019-01-13T18:58:43.909Z,17.43
2019-01-13T19:01:13.795Z,17.90
2019-01-13T19:03:43.331Z,15.30
2019-01-13T19:06:12.779Z,11.47
2019-01-13T19:08:42.164Z,12.53
2019-01-13T19:11:19.830Z,12.47
2019-01-13T19:14:15.340Z,16.70
2019-01-13T19:16:53.416Z,19.17
2019-01-13T19:19:23.268Z,16.27
2019-01-13T19:21:52.732Z,11.83
2019-01-13T19:24:22.583Z,13.77
2019-01-13T19:26:52.323Z,15.80
2019-01-13T19:29:22.068Z,17.30
2019-01-13T19:31:51.880Z,13.50
2019-01-13T19:34:21.356Z,18.27
2019-01-13T19:36:50.811Z,19.23
2019-01-13T19:39:20.206Z,20.80
2019-01-13T19:41:49.575Z,18.57
2019-01-13T19:44:19.027Z,16.10
2019-01-13T19:46:48.442Z,21.50
2019-01-13T19:49:18.765Z,23.50
2019-01-13T19:51:48.677Z,19.93
2019-01-13T19:54:19.414Z,22.43
2019-01-13T19:56:49.814Z,22.37
2019-01-13T19:59:20.082Z,14.93
2019-01-13T20:01:50.257Z,20.97
2019-01-13T20:04:19.952Z,16.83
2019-01-13T20:06:49.449Z,18.53
2019-01-13T20:09:20.922Z,13.10
2019-01-13T20:11:50.272Z,22.23
2019-01-13T20:14:19.750Z,15.63
2019-01-13T20:16:49.156Z,19.07
2019-01-13T20:19:18.582Z,18.17
2019-01-13T20:21:47.985Z,20.17
2019-01-13T20:24:17.429Z,22.37
2019-01-13T20:26:46.927Z,27.77
2019-01-13T20:29:16.349Z,37.77
2019-01-13T20:31:46.033Z,29.47
2019-01-13T20:34:15.706Z,27.83
2019-01-13T20:36:45.062Z,36.10
2019-01-13T20:39:14.528Z,38.80
2019-01-13T20:41:43.937Z,30.03
2019-01-13T20:44:13.354Z,32.77
2019-01-13T20:46:42.757Z,25.50
2019-01-13T20:49:12.211Z,26.80
2019-01-13T20:51:41.604Z,23.47
2019-01-13T20:54:10.910Z,21.50
2019-01-13T20:56:40.296Z,29.60
2019-01-13T20:59:09.680Z,27.87
2019-01-13T21:01:39.498Z,23.13
2019-01-13T21:04:08.944Z,21.53
2019-01-13T21:06:38.746Z,21.30
2019-01-13T21:09:10.710Z,23.20
2019-01-13T21:11:40.449Z,22.60
2019-01-13T21:14:10.147Z,21.93
2019-01-13T21:16:39.667Z,20.13
2019-01-13T21:19:09.061Z,22.67
2019-01-13T21:21:38.491Z,17.53
2019-01-13T21:24:07.877Z,31.93
2019-01-13T21:26:37.613Z,29.77
2019-01-13T21:29:07.055Z,22.70
2019-01-13T21:31:38.383Z,15.50
2019-01-13T21:34:08.492Z,21.37
2019-01-13T21:36:37.972Z,17.47
2019-01-13T21:39:09.343Z,19.67
2019-01-13T21:41:38.755Z,18.97
2019-01-13T21:44:08.154Z,17.17
2019-01-13T21:46:37.708Z,18.00
2019-01-13T21:49:07.912Z,17.80
2019-01-13T21:51:37.240Z,22.13
2019-01-13T21:54:10.859Z,21.17
2019-01-13T21:56:37.622Z,19.33
2019-01-13T21:59:06.946Z,19.80
2019-01-13T22:01:36.377Z,21.93
2019-01-13T22:04:05.863Z,33.13
2019-01-13T22:06:35.253Z,25.87
2019-01-13T22:09:09.850Z,23.10
2019-01-13T22:11:39.282Z,27.90
2019-01-13T22:14:09.097Z,27.63
2019-01-13T22:16:38.881Z,19.83
2019-01-13T22:19:08.343Z,16.63
2019-01-13T22:21:37.650Z,16.70
2019-01-13T22:24:07.022Z,17.80
2019-01-13T22:26:36.408Z,21.97
2019-01-13T22:29:05.838Z,15.60
2019-01-13T22:31:35.206Z,21.80
2019-01-13T22:34:04.613Z,18.43
2019-01-13T22:36:34.404Z,12.63
2019-01-13T22:39:07.824Z,12.83
2019-01-13T22:41:37.433Z,12.33
2019-01-13T22:44:06.850Z,24.67
2019-01-13T22:46:36.268Z,15.97
2019-01-13T22:49:05.777Z,24.77
2019-01-13T22:51:35.048Z,38.43
2019-01-13T22:54:04.521Z,30.83
2019-01-13T22:56:33.769Z,34.27
2019-01-13T22:59:03.200Z,30.93
2019-01-13T23:01:39.363Z,27.60
2019-01-13T23:04:10.849Z,29.57
2019-01-13T23:06:40.683Z,29.00
2019-01-13T23:09:11.120Z,30.53
2019-01-13T23:11:40.592Z,26.50
2019-01-13T23:14:10.228Z,22.70
2019-01-13T23:16:39.866Z,32.33
2019-01-13T23:19:09.316Z,22.43
2019-01-13T23:21:38.714Z,24.73
2019-01-13T23:24:08.164Z,21.20
2019-01-13T23:26:37.522Z,17.53
2019-01-13T23:29:07.254Z,19.20
2019-01-13T23:31:36.638Z,15.93
2019-01-13T23:34:06.122Z,17.50
2019-01-13T23:36:35.519Z,20.23
2019-01-13T23:39:07.763Z,18.87
2019-01-13T23:41:37.125Z,16.00
2019-01-13T23:44:07.130Z,20.13
2019-01-13T23:46:36.515Z,18.73
2019-01-13T23:49:06.235Z,19.43
2019-01-13T23:51:35.679Z,17.43
2019-01-13T23:54:05.598Z,20.57
2019-01-13T23:56:35.582Z,24.73
2019-01-13T23:59:05.114Z,18.77
